sensor_id;sensor_type;location;lat;lon;timestamp;pressure;altitude;pressure_sealevel;temperature;humidity
46714;BME280;32445;51.376;10.874;2023-03-23T00:00:52;98453.59;;;14.22;43.93
46714;BME280;32445;51.376;10.874;2023-03-23T00:03:54;98446.78;;;14.19;43.96
46714;BME280;32445;51.376;10.874;2023-03-23T00:06:57;98455.56;;;14.18;44.12
46714;BME280;32445;51.376;10.874;2023-03-23T00:09:57;98458.19;;;14.18;44.23
46714;BME280;32445;51.376;10.874;2023-03-23T00:12:57;98454.44;;;14.23;44.40
46714;BME280;32445;51.376;10.874;2023-03-23T00:16:02;98448.38;;;14.22;44.06
46714;BME280;32445;51.376;10.874;2023-03-23T00:19:10;98445.03;;;14.20;44.22
46714;BME280;32445;51.376;10.874;2023-03-23T00:22:14;98445.13;;;14.18;43.98
46714;BME280;32445;51.376;10.874;2023-03-23T00:25:15;98438.13;;;14.19;44.00
46714;BME280;32445;51.376;10.874;2023-03-23T00:28:16;98435.59;;;14.17;44.21
46714;BME280;32445;51.376;10.874;2023-03-23T00:31:17;98444.34;;;14.16;44.10
46714;BME280;32445;51.376;10.874;2023-03-23T00:34:20;98435.78;;;14.14;44.05
46714;BME280;32445;51.376;10.874;2023-03-23T00:37:21;98434.00;;;14.15;44.17
46714;BME280;32445;51.376;10.874;2023-03-23T00:40:21;98431.50;;;14.13;44.37
46714;BME280;32445;51.376;10.874;2023-03-23T00:43:22;98437.63;;;14.12;44.18
46714;BME280;32445;51.376;10.874;2023-03-23T00:46:24;98427.19;;;14.12;44.20
46714;BME280;32445;51.376;10.874;2023-03-23T00:49:25;98431.59;;;14.12;44.04
46714;BME280;32445;51.376;10.874;2023-03-23T00:52:26;98430.56;;;14.14;44.05
46714;BME280;32445;51.376;10.874;2023-03-23T00:55:26;98420.97;;;14.15;44.17
46714;BME280;32445;51.376;10.874;2023-03-23T00:58:27;98425.16;;;14.17;44.21
46714;BME280;32445;51.376;10.874;2023-03-23T01:01:27;98417.25;;;14.19;43.92
46714;BME280;32445;51.376;10.874;2023-03-23T01:04:27;98406.63;;;14.22;43.96
46714;BME280;32445;51.376;10.874;2023-03-23T01:07:28;98417.91;;;14.23;43.79
46714;BME280;32445;51.376;10.874;2023-03-23T01:10:31;98415.28;;;14.23;43.78
46714;BME280;32445;51.376;10.874;2023-03-23T01:13:32;98404.69;;;14.26;43.67
46714;BME280;32445;51.376;10.874;2023-03-23T01:16:33;98407.22;;;14.27;43.86
46714;BME280;32445;51.376;10.874;2023-03-23T01:19:33;98402.81;;;14.28;43.52
46714;BME280;32445;51.376;10.874;2023-03-23T01:22:34;98401.03;;;14.28;43.74
46714;BME280;32445;51.376;10.874;2023-03-23T01:25:35;98396.59;;;14.30;43.72
46714;BME280;32445;51.376;10.874;2023-03-23T01:28:37;98389.59;;;14.31;43.63
46714;BME280;32445;51.376;10.874;2023-03-23T01:31:37;98392.09;;;14.32;43.94
46714;BME280;32445;51.376;10.874;2023-03-23T01:34:37;98409.44;;;14.33;43.85
46714;BME280;32445;51.376;10.874;2023-03-23T01:37:38;98401.63;;;14.33;43.56
46714;BME280;32445;51.376;10.874;2023-03-23T01:40:39;98396.31;;;14.35;43.61
46714;BME280;32445;51.376;10.874;2023-03-23T01:43:59;98392.78;;;14.36;43.76
46714;BME280;32445;51.376;10.874;2023-03-23T01:47:01;98384.03;;;14.37;43.49
46714;BME280;32445;51.376;10.874;2023-03-23T01:50:02;98391.00;;;14.36;43.72
46714;BME280;32445;51.376;10.874;2023-03-23T01:53:05;98397.81;;;14.39;43.83
46714;BME280;32445;51.376;10.874;2023-03-23T01:56:09;98388.09;;;14.41;43.76
46714;BME280;32445;51.376;10.874;2023-03-23T01:59:11;98384.56;;;14.42;43.75
46714;BME280;32445;51.376;10.874;2023-03-23T02:02:14;98384.47;;;14.44;43.61
46714;BME280;32445;51.376;10.874;2023-03-23T02:05:41;98380.16;;;14.43;43.34
46714;BME280;32445;51.376;10.874;2023-03-23T02:08:42;98378.91;;;14.50;43.49
46714;BME280;32445;51.376;10.874;2023-03-23T02:11:44;98377.22;;;14.49;43.56
46714;BME280;32445;51.376;10.874;2023-03-23T02:14:45;98373.50;;;14.53;43.57
46714;BME280;32445;51.376;10.874;2023-03-23T02:17:54;98363.69;;;14.57;43.38
46714;BME280;32445;51.376;10.874;2023-03-23T02:35:20;98344.28;;;14.61;43.26
46714;BME280;32445;51.376;10.874;2023-03-23T02:38:30;98328.63;;;14.61;43.28
46714;BME280;32445;51.376;10.874;2023-03-23T02:41:37;98337.22;;;14.63;43.14
46714;BME280;32445;51.376;10.874;2023-03-23T02:44:42;98336.44;;;14.61;43.40
46714;BME280;32445;51.376;10.874;2023-03-23T02:47:45;98339.97;;;14.60;43.70
46714;BME280;32445;51.376;10.874;2023-03-23T02:50:50;98333.19;;;14.57;43.38
46714;BME280;32445;51.376;10.874;2023-03-23T02:53:53;98337.38;;;14.60;43.65
46714;BME280;32445;51.376;10.874;2023-03-23T02:56:55;98331.16;;;14.62;43.34
46714;BME280;32445;51.376;10.874;2023-03-23T02:59:57;98317.09;;;14.65;43.71
46714;BME280;32445;51.376;10.874;2023-03-23T03:02:57;98319.41;;;14.69;43.41
46714;BME280;32445;51.376;10.874;2023-03-23T03:06:10;98307.38;;;14.67;43.39
46714;BME280;32445;51.376;10.874;2023-03-23T03:15:51;98318.88;;;14.64;43.31
46714;BME280;32445;51.376;10.874;2023-03-23T03:22:19;98317.44;;;14.73;43.68
46714;BME280;32445;51.376;10.874;2023-03-23T03:25:21;98310.25;;;14.77;43.62
46714;BME280;32445;51.376;10.874;2023-03-23T03:28:23;98309.31;;;14.78;43.80
46714;BME280;32445;51.376;10.874;2023-03-23T03:31:28;98319.56;;;14.81;44.32
46714;BME280;32445;51.376;10.874;2023-03-23T03:34:29;98316.97;;;14.81;43.97
46714;BME280;32445;51.376;10.874;2023-03-23T03:37:36;98330.31;;;14.76;43.78
46714;BME280;32445;51.376;10.874;2023-03-23T03:40:37;98352.53;;;14.69;44.21
46714;BME280;32445;51.376;10.874;2023-03-23T03:43:38;98342.50;;;14.61;44.17
46714;BME280;32445;51.376;10.874;2023-03-23T03:46:38;98323.00;;;14.52;44.44
46714;BME280;32445;51.376;10.874;2023-03-23T03:49:39;98350.19;;;14.50;44.38
46714;BME280;32445;51.376;10.874;2023-03-23T03:52:40;98347.81;;;14.45;45.21
46714;BME280;32445;51.376;10.874;2023-03-23T03:55:41;98355.00;;;14.42;45.42
46714;BME280;32445;51.376;10.874;2023-03-23T03:58:45;98356.31;;;14.34;46.04
46714;BME280;32445;51.376;10.874;2023-03-23T04:01:48;98370.38;;;14.32;46.29
46714;BME280;32445;51.376;10.874;2023-03-23T04:04:54;98374.84;;;14.30;46.42
46714;BME280;32445;51.376;10.874;2023-03-23T04:07:54;98373.19;;;14.29;46.85
46714;BME280;32445;51.376;10.874;2023-03-23T04:11:01;98377.53;;;14.28;46.75
46714;BME280;32445;51.376;10.874;2023-03-23T04:14:01;98388.16;;;14.25;47.19
46714;BME280;32445;51.376;10.874;2023-03-23T04:17:02;98383.13;;;14.22;47.21
46714;BME280;32445;51.376;10.874;2023-03-23T04:20:04;98382.31;;;14.22;47.37
46714;BME280;32445;51.376;10.874;2023-03-23T04:23:19;98377.09;;;14.22;47.46
46714;BME280;32445;51.376;10.874;2023-03-23T04:26:21;98394.41;;;14.23;47.45
46714;BME280;32445;51.376;10.874;2023-03-23T04:29:22;98369.34;;;14.20;47.54
46714;BME280;32445;51.376;10.874;2023-03-23T04:32:22;98374.09;;;14.13;48.12
46714;BME280;32445;51.376;10.874;2023-03-23T04:35:25;98372.50;;;14.11;48.52
46714;BME280;32445;51.376;10.874;2023-03-23T04:38:27;98383.19;;;14.06;48.30
46714;BME280;32445;51.376;10.874;2023-03-23T04:41:28;98377.88;;;14.08;48.24
46714;BME280;32445;51.376;10.874;2023-03-23T04:44:28;98388.31;;;14.08;48.66
46714;BME280;32445;51.376;10.874;2023-03-23T04:47:34;98378.06;;;14.05;49.12
46714;BME280;32445;51.376;10.874;2023-03-23T04:50:39;98375.56;;;14.03;49.70
46714;BME280;32445;51.376;10.874;2023-03-23T04:53:40;98392.81;;;14.06;49.49
46714;BME280;32445;51.376;10.874;2023-03-23T04:56:41;98377.97;;;14.06;49.32
46714;BME280;32445;51.376;10.874;2023-03-23T04:59:42;98388.50;;;14.05;49.20
46714;BME280;32445;51.376;10.874;2023-03-23T05:02:43;98384.22;;;14.04;49.30
46714;BME280;32445;51.376;10.874;2023-03-23T05:05:45;98396.44;;;14.03;49.23
46714;BME280;32445;51.376;10.874;2023-03-23T05:08:48;98395.75;;;13.99;49.67
46714;BME280;32445;51.376;10.874;2023-03-23T05:11:48;98405.63;;;13.94;50.29
46714;BME280;32445;51.376;10.874;2023-03-23T05:14:49;98424.81;;;13.93;50.15
46714;BME280;32445;51.376;10.874;2023-03-23T05:17:51;98428.53;;;13.89;50.20
46714;BME280;32445;51.376;10.874;2023-03-23T05:20:52;98413.97;;;13.85;50.81
46714;BME280;32445;51.376;10.874;2023-03-23T05:23:52;98418.25;;;13.86;50.79
46714;BME280;32445;51.376;10.874;2023-03-23T05:26:54;98413.97;;;13.85;50.69
46714;BME280;32445;51.376;10.874;2023-03-23T05:29:55;98416.75;;;13.82;50.51
46714;BME280;32445;51.376;10.874;2023-03-23T05:32:55;98415.44;;;13.75;50.87
46714;BME280;32445;51.376;10.874;2023-03-23T05:35:55;98409.47;;;13.73;52.10
46714;BME280;32445;51.376;10.874;2023-03-23T05:38:56;98417.44;;;13.70;51.84
46714;BME280;32445;51.376;10.874;2023-03-23T05:41:56;98412.56;;;13.63;52.03
46714;BME280;32445;51.376;10.874;2023-03-23T05:44:57;98413.34;;;13.65;52.07
46714;BME280;32445;51.376;10.874;2023-03-23T05:47:58;98411.56;;;13.66;52.48
46714;BME280;32445;51.376;10.874;2023-03-23T05:50:59;98415.00;;;13.66;52.21
46714;BME280;32445;51.376;10.874;2023-03-23T05:53:59;98413.00;;;13.72;52.11
46714;BME280;32445;51.376;10.874;2023-03-23T05:57:00;98414.69;;;13.73;52.15
46714;BME280;32445;51.376;10.874;2023-03-23T06:00:00;98407.78;;;13.72;52.69
46714;BME280;32445;51.376;10.874;2023-03-23T06:03:13;98407.69;;;13.73;51.95
46714;BME280;32445;51.376;10.874;2023-03-23T06:06:15;98414.50;;;13.76;52.29
46714;BME280;32445;51.376;10.874;2023-03-23T06:09:15;98419.53;;;13.79;52.06
46714;BME280;32445;51.376;10.874;2023-03-23T06:12:17;98416.09;;;13.78;51.99
46714;BME280;32445;51.376;10.874;2023-03-23T06:15:20;98408.34;;;13.77;52.19
46714;BME280;32445;51.376;10.874;2023-03-23T06:18:21;98418.88;;;13.75;52.49
46714;BME280;32445;51.376;10.874;2023-03-23T06:21:22;98419.31;;;13.67;52.68
46714;BME280;32445;51.376;10.874;2023-03-23T06:24:23;98414.44;;;13.61;52.53
46714;BME280;32445;51.376;10.874;2023-03-23T06:27:23;98412.06;;;13.57;52.76
46714;BME280;32445;51.376;10.874;2023-03-23T06:30:24;98424.53;;;13.52;53.42
46714;BME280;32445;51.376;10.874;2023-03-23T06:33:25;98406.13;;;13.39;54.18
46714;BME280;32445;51.376;10.874;2023-03-23T06:36:26;98406.59;;;13.29;54.43
46714;BME280;32445;51.376;10.874;2023-03-23T06:39:27;98424.25;;;13.24;54.44
46714;BME280;32445;51.376;10.874;2023-03-23T06:42:28;98400.19;;;13.19;54.99
46714;BME280;32445;51.376;10.874;2023-03-23T06:45:29;98401.28;;;13.15;54.88
46714;BME280;32445;51.376;10.874;2023-03-23T06:48:29;98426.69;;;13.11;55.75
46714;BME280;32445;51.376;10.874;2023-03-23T06:51:30;98439.03;;;13.08;55.80
46714;BME280;32445;51.376;10.874;2023-03-23T06:54:31;98436.75;;;13.02;56.04
46714;BME280;32445;51.376;10.874;2023-03-23T06:57:31;98417.81;;;12.98;56.23
46714;BME280;32445;51.376;10.874;2023-03-23T07:00:32;98423.72;;;13.02;55.95
46714;BME280;32445;51.376;10.874;2023-03-23T07:03:33;98427.94;;;13.04;56.01
46714;BME280;32445;51.376;10.874;2023-03-23T07:06:34;98427.16;;;13.02;56.32
46714;BME280;32445;51.376;10.874;2023-03-23T07:09:34;98412.31;;;13.04;56.05
46714;BME280;32445;51.376;10.874;2023-03-23T07:12:35;98418.19;;;13.08;55.86
46714;BME280;32445;51.376;10.874;2023-03-23T07:15:36;98417.25;;;13.09;55.66
46714;BME280;32445;51.376;10.874;2023-03-23T07:18:37;98414.66;;;13.09;56.26
46714;BME280;32445;51.376;10.874;2023-03-23T07:21:37;98406.84;;;13.09;55.81
46714;BME280;32445;51.376;10.874;2023-03-23T07:24:37;98408.72;;;13.07;56.11
46714;BME280;32445;51.376;10.874;2023-03-23T07:27:38;98408.72;;;13.07;56.53
46714;BME280;32445;51.376;10.874;2023-03-23T07:30:38;98399.13;;;13.07;56.54
46714;BME280;32445;51.376;10.874;2023-03-23T07:33:39;98397.16;;;13.11;56.79
46714;BME280;32445;51.376;10.874;2023-03-23T07:36:39;98384.16;;;13.11;56.90
46714;BME280;32445;51.376;10.874;2023-03-23T07:39:40;98393.66;;;13.12;56.61
46714;BME280;32445;51.376;10.874;2023-03-23T07:42:42;98386.75;;;13.11;57.38
46714;BME280;32445;51.376;10.874;2023-03-23T07:45:43;98388.34;;;13.13;57.31
46714;BME280;32445;51.376;10.874;2023-03-23T07:48:43;98392.66;;;13.14;57.49
46714;BME280;32445;51.376;10.874;2023-03-23T07:51:45;98401.28;;;13.15;57.64
46714;BME280;32445;51.376;10.874;2023-03-23T07:54:45;98389.03;;;13.17;57.46
46714;BME280;32445;51.376;10.874;2023-03-23T07:57:47;98393.91;;;13.23;57.12
46714;BME280;32445;51.376;10.874;2023-03-23T08:00:48;98410.81;;;13.32;57.29
46714;BME280;32445;51.376;10.874;2023-03-23T08:03:49;98416.66;;;13.37;57.30
46714;BME280;32445;51.376;10.874;2023-03-23T08:06:50;98403.19;;;13.45;57.89
46714;BME280;32445;51.376;10.874;2023-03-23T08:09:51;98424.38;;;13.55;57.42
46714;BME280;32445;51.376;10.874;2023-03-23T08:12:53;98430.19;;;13.60;57.30
46714;BME280;32445;51.376;10.874;2023-03-23T08:15:53;98423.28;;;13.59;57.12
46714;BME280;32445;51.376;10.874;2023-03-23T08:18:53;98417.88;;;13.62;57.07
46714;BME280;32445;51.376;10.874;2023-03-23T08:21:54;98414.84;;;13.70;57.33
46714;BME280;32445;51.376;10.874;2023-03-23T08:24:55;98420.72;;;13.73;56.98
46714;BME280;32445;51.376;10.874;2023-03-23T08:27:55;98422.16;;;13.79;56.68
46714;BME280;32445;51.376;10.874;2023-03-23T08:30:55;98428.97;;;13.81;56.56
46714;BME280;32445;51.376;10.874;2023-03-23T08:33:57;98426.19;;;13.84;56.45
46714;BME280;32445;51.376;10.874;2023-03-23T08:36:57;98429.34;;;13.90;56.47
46714;BME280;32445;51.376;10.874;2023-03-23T08:39:57;98431.72;;;13.94;56.21
46714;BME280;32445;51.376;10.874;2023-03-23T08:42:58;98435.91;;;13.97;56.16
46714;BME280;32445;51.376;10.874;2023-03-23T08:45:58;98426.97;;;14.01;55.97
46714;BME280;32445;51.376;10.874;2023-03-23T08:48:59;98436.22;;;14.07;55.93
46714;BME280;32445;51.376;10.874;2023-03-23T08:51:59;98425.34;;;14.14;56.00
46714;BME280;32445;51.376;10.874;2023-03-23T08:54:59;98438.03;;;14.21;55.65
46714;BME280;32445;51.376;10.874;2023-03-23T08:58:00;98433.31;;;14.27;55.50
46714;BME280;32445;51.376;10.874;2023-03-23T09:01:03;98443.38;;;14.33;55.15
46714;BME280;32445;51.376;10.874;2023-03-23T09:04:05;98430.91;;;14.39;55.08
46714;BME280;32445;51.376;10.874;2023-03-23T09:07:05;98435.84;;;14.43;54.92
46714;BME280;32445;51.376;10.874;2023-03-23T09:10:07;98444.09;;;14.51;54.54
46714;BME280;32445;51.376;10.874;2023-03-23T09:13:08;98438.75;;;14.53;54.66
46714;BME280;32445;51.376;10.874;2023-03-23T09:16:09;98439.31;;;14.58;54.39
46714;BME280;32445;51.376;10.874;2023-03-23T09:19:09;98445.31;;;14.60;53.80
46714;BME280;32445;51.376;10.874;2023-03-23T09:22:10;98446.22;;;14.59;53.83
46714;BME280;32445;51.376;10.874;2023-03-23T09:25:13;98438.91;;;14.66;54.03
46714;BME280;32445;51.376;10.874;2023-03-23T09:28:14;98440.22;;;14.73;53.32
46714;BME280;32445;51.376;10.874;2023-03-23T09:31:14;98447.78;;;14.78;52.98
46714;BME280;32445;51.376;10.874;2023-03-23T09:34:16;98446.94;;;14.77;52.73
46714;BME280;32445;51.376;10.874;2023-03-23T09:37:16;98446.00;;;14.78;52.58
46714;BME280;32445;51.376;10.874;2023-03-23T09:40:23;98453.56;;;14.83;52.22
46714;BME280;32445;51.376;10.874;2023-03-23T09:44:06;98455.22;;;14.84;52.20
46714;BME280;32445;51.376;10.874;2023-03-23T09:50:29;98460.56;;;14.97;52.19
46714;BME280;32445;51.376;10.874;2023-03-23T09:53:37;98458.59;;;15.00;51.74
46714;BME280;32445;51.376;10.874;2023-03-23T09:56:39;98467.09;;;15.04;51.40
46714;BME280;32445;51.376;10.874;2023-03-23T10:06:00;98463.34;;;15.08;51.54
46714;BME280;32445;51.376;10.874;2023-03-23T10:09:03;98452.34;;;15.17;51.38
46714;BME280;32445;51.376;10.874;2023-03-23T10:12:24;98473.69;;;15.24;51.75
46714;BME280;32445;51.376;10.874;2023-03-23T10:15:38;98479.69;;;15.26;50.75
46714;BME280;32445;51.376;10.874;2023-03-23T10:19:20;98477.53;;;15.18;51.40
46714;BME280;32445;51.376;10.874;2023-03-23T10:22:31;98467.94;;;15.19;51.35
46714;BME280;32445;51.376;10.874;2023-03-23T10:25:35;98461.66;;;15.21;51.17
46714;BME280;32445;51.376;10.874;2023-03-23T10:28:41;98463.91;;;15.28;51.17
46714;BME280;32445;51.376;10.874;2023-03-23T10:31:46;98469.66;;;15.33;50.32
46714;BME280;32445;51.376;10.874;2023-03-23T10:35:03;98474.16;;;15.31;50.42
46714;BME280;32445;51.376;10.874;2023-03-23T10:38:11;98455.47;;;15.37;50.06
46714;BME280;32445;51.376;10.874;2023-03-23T10:41:18;98457.06;;;15.39;50.36
46714;BME280;32445;51.376;10.874;2023-03-23T10:44:24;98466.09;;;15.48;49.98
46714;BME280;32445;51.376;10.874;2023-03-23T10:47:27;98456.31;;;15.52;49.51
46714;BME280;32445;51.376;10.874;2023-03-23T10:50:31;98452.72;;;15.53;49.63
46714;BME280;32445;51.376;10.874;2023-03-23T10:53:36;98455.69;;;15.61;50.40
46714;BME280;32445;51.376;10.874;2023-03-23T10:56:39;98464.53;;;15.73;49.71
46714;BME280;32445;51.376;10.874;2023-03-23T10:59:40;98458.84;;;15.81;49.38
46714;BME280;32445;51.376;10.874;2023-03-23T11:02:44;98466.84;;;15.92;49.38
46714;BME280;32445;51.376;10.874;2023-03-23T11:05:52;98459.84;;;15.93;48.41
46714;BME280;32445;51.376;10.874;2023-03-23T11:09:02;98467.69;;;15.93;48.16
46714;BME280;32445;51.376;10.874;2023-03-23T11:12:04;98470.66;;;16.01;48.69
46714;BME280;32445;51.376;10.874;2023-03-23T11:15:21;98469.63;;;16.03;48.77
46714;BME280;32445;51.376;10.874;2023-03-23T11:18:25;98463.78;;;16.13;47.94
46714;BME280;32445;51.376;10.874;2023-03-23T11:21:27;98469.94;;;16.12;48.19
46714;BME280;32445;51.376;10.874;2023-03-23T11:24:28;98475.28;;;16.10;47.19
46714;BME280;32445;51.376;10.874;2023-03-23T11:27:29;98465.56;;;16.12;47.41
46714;BME280;32445;51.376;10.874;2023-03-23T11:30:30;98489.03;;;16.14;47.81
46714;BME280;32445;51.376;10.874;2023-03-23T11:33:38;98479.47;;;16.13;47.95
46714;BME280;32445;51.376;10.874;2023-03-23T11:36:43;98482.94;;;16.13;48.47
46714;BME280;32445;51.376;10.874;2023-03-23T11:43:40;98482.31;;;16.09;48.76
46714;BME280;32445;51.376;10.874;2023-03-23T11:46:36;98464.59;;;16.13;48.20
46714;BME280;32445;51.376;10.874;2023-03-23T11:53:07;98456.38;;;16.19;48.26
46714;BME280;32445;51.376;10.874;2023-03-23T11:56:24;98468.50;;;16.20;47.55
46714;BME280;32445;51.376;10.874;2023-03-23T11:59:31;98480.53;;;16.23;47.80
46714;BME280;32445;51.376;10.874;2023-03-23T12:02:46;98476.78;;;16.27;47.56
46714;BME280;32445;51.376;10.874;2023-03-23T12:06:01;98483.50;;;16.31;46.99
46714;BME280;32445;51.376;10.874;2023-03-23T12:12:42;98493.22;;;16.16;45.61
46714;BME280;32445;51.376;10.874;2023-03-23T12:19:08;98487.53;;;16.09;45.30
46714;BME280;32445;51.376;10.874;2023-03-23T12:29:24;98486.41;;;16.14;45.46
46714;BME280;32445;51.376;10.874;2023-03-23T12:36:06;98506.91;;;16.07;45.12
46714;BME280;32445;51.376;10.874;2023-03-23T12:42:54;98493.59;;;16.10;45.12
46714;BME280;32445;51.376;10.874;2023-03-23T12:55:45;98481.72;;;16.32;45.42
46714;BME280;32445;51.376;10.874;2023-03-23T12:58:51;98478.81;;;16.36;45.33
46714;BME280;32445;51.376;10.874;2023-03-23T13:02:10;98482.25;;;16.37;45.38
46714;BME280;32445;51.376;10.874;2023-03-23T13:05:32;98483.53;;;16.44;45.47
46714;BME280;32445;51.376;10.874;2023-03-23T13:09:02;98467.41;;;16.50;45.51
46714;BME280;32445;51.376;10.874;2023-03-23T13:12:05;98464.56;;;16.53;45.41
46714;BME280;32445;51.376;10.874;2023-03-23T13:18:27;98474.75;;;16.58;44.73
46714;BME280;32445;51.376;10.874;2023-03-23T13:21:32;98470.34;;;16.58;44.83
46714;BME280;32445;51.376;10.874;2023-03-23T13:24:46;98485.03;;;16.61;44.87
46714;BME280;32445;51.376;10.874;2023-03-23T13:27:57;98472.75;;;16.61;44.84
46714;BME280;32445;51.376;10.874;2023-03-23T13:31:15;98480.50;;;16.63;44.77
46714;BME280;32445;51.376;10.874;2023-03-23T13:34:29;98476.53;;;16.57;44.84
46714;BME280;32445;51.376;10.874;2023-03-23T13:37:30;98474.13;;;16.54;44.84
46714;BME280;32445;51.376;10.874;2023-03-23T13:40:31;98467.13;;;16.55;45.20
46714;BME280;32445;51.376;10.874;2023-03-23T13:43:35;98470.25;;;16.60;45.16
46714;BME280;32445;51.376;10.874;2023-03-23T13:46:36;98474.13;;;16.67;45.31
46714;BME280;32445;51.376;10.874;2023-03-23T13:49:49;98462.72;;;16.68;45.46
46714;BME280;32445;51.376;10.874;2023-03-23T13:52:57;98472.97;;;16.71;45.77
46714;BME280;32445;51.376;10.874;2023-03-23T13:56:18;98474.66;;;16.72;45.96
46714;BME280;32445;51.376;10.874;2023-03-23T14:02:40;98452.53;;;16.64;46.70
46714;BME280;32445;51.376;10.874;2023-03-23T14:08:53;98480.00;;;16.58;47.15
46714;BME280;32445;51.376;10.874;2023-03-23T14:11:57;98471.50;;;16.54;47.26
46714;BME280;32445;51.376;10.874;2023-03-23T14:15:01;98469.81;;;16.53;47.02
46714;BME280;32445;51.376;10.874;2023-03-23T14:18:04;98463.94;;;16.50;47.45
46714;BME280;32445;51.376;10.874;2023-03-23T14:21:11;98463.84;;;16.51;47.34
46714;BME280;32445;51.376;10.874;2023-03-23T14:24:22;98474.13;;;16.54;47.36
46714;BME280;32445;51.376;10.874;2023-03-23T14:27:26;98480.38;;;16.52;47.17
46714;BME280;32445;51.376;10.874;2023-03-23T14:30:35;98490.25;;;16.48;47.26
46714;BME280;32445;51.376;10.874;2023-03-23T14:33:38;98495.69;;;16.45;47.18
46714;BME280;32445;51.376;10.874;2023-03-23T14:36:41;98484.56;;;16.41;47.60
46714;BME280;32445;51.376;10.874;2023-03-23T14:39:47;98486.03;;;16.33;47.97
46714;BME280;32445;51.376;10.874;2023-03-23T14:42:50;98482.69;;;16.31;48.22
46714;BME280;32445;51.376;10.874;2023-03-23T14:45:54;98483.41;;;16.33;48.27
46714;BME280;32445;51.376;10.874;2023-03-23T14:48:54;98467.38;;;16.37;48.17
46714;BME280;32445;51.376;10.874;2023-03-23T14:51:55;98476.50;;;16.44;48.02
46714;BME280;32445;51.376;10.874;2023-03-23T14:55:10;98471.25;;;16.44;47.77
46714;BME280;32445;51.376;10.874;2023-03-23T14:58:15;98467.00;;;16.43;48.13
46714;BME280;32445;51.376;10.874;2023-03-23T15:04:21;98466.88;;;16.45;48.33
46714;BME280;32445;51.376;10.874;2023-03-23T15:07:28;98485.72;;;16.50;47.75
46714;BME280;32445;51.376;10.874;2023-03-23T15:10:29;98476.00;;;16.52;47.47
46714;BME280;32445;51.376;10.874;2023-03-23T15:13:31;98478.72;;;16.51;47.44
46714;BME280;32445;51.376;10.874;2023-03-23T15:16:32;98471.81;;;16.50;47.50
46714;BME280;32445;51.376;10.874;2023-03-23T15:19:34;98467.13;;;16.55;47.20
46714;BME280;32445;51.376;10.874;2023-03-23T15:22:45;98466.16;;;16.56;47.45
46714;BME280;32445;51.376;10.874;2023-03-23T15:25:54;98478.09;;;16.60;47.37
46714;BME280;32445;51.376;10.874;2023-03-23T15:29:21;98475.47;;;16.60;47.31
46714;BME280;32445;51.376;10.874;2023-03-23T15:32:27;98478.53;;;16.67;46.98
46714;BME280;32445;51.376;10.874;2023-03-23T15:35:34;98485.53;;;16.66;46.92
46714;BME280;32445;51.376;10.874;2023-03-23T15:38:35;98472.38;;;16.68;46.92
46714;BME280;32445;51.376;10.874;2023-03-23T15:41:46;98474.13;;;16.67;47.05
46714;BME280;32445;51.376;10.874;2023-03-23T15:44:55;98475.06;;;16.66;46.47
46714;BME280;32445;51.376;10.874;2023-03-23T15:47:58;98491.84;;;16.64;46.93
46714;BME280;32445;51.376;10.874;2023-03-23T15:51:04;98488.69;;;16.58;46.63
46714;BME280;32445;51.376;10.874;2023-03-23T15:54:09;98496.22;;;16.50;46.62
46714;BME280;32445;51.376;10.874;2023-03-23T15:57:12;98480.69;;;16.47;46.83
46714;BME280;32445;51.376;10.874;2023-03-23T16:00:13;98486.34;;;16.41;47.20
46714;BME280;32445;51.376;10.874;2023-03-23T16:03:23;98500.50;;;16.38;47.22
46714;BME280;32445;51.376;10.874;2023-03-23T16:06:31;98505.00;;;16.36;47.12
46714;BME280;32445;51.376;10.874;2023-03-23T16:09:32;98502.50;;;16.35;47.25
46714;BME280;32445;51.376;10.874;2023-03-23T16:12:32;98493.66;;;16.36;47.10
46714;BME280;32445;51.376;10.874;2023-03-23T16:15:33;98492.94;;;16.34;47.20
46714;BME280;32445;51.376;10.874;2023-03-23T16:18:33;98480.78;;;16.33;47.53
46714;BME280;32445;51.376;10.874;2023-03-23T16:21:33;98478.06;;;16.34;47.33
46714;BME280;32445;51.376;10.874;2023-03-23T16:24:34;98491.25;;;16.33;47.57
46714;BME280;32445;51.376;10.874;2023-03-23T16:27:35;98483.41;;;16.33;47.71
46714;BME280;32445;51.376;10.874;2023-03-23T16:30:35;98483.50;;;16.31;47.68
46714;BME280;32445;51.376;10.874;2023-03-23T16:33:35;98488.03;;;16.29;47.95
46714;BME280;32445;51.376;10.874;2023-03-23T16:36:36;98485.47;;;16.27;48.12
46714;BME280;32445;51.376;10.874;2023-03-23T16:39:37;98477.00;;;16.24;47.98
46714;BME280;32445;51.376;10.874;2023-03-23T16:42:37;98471.75;;;16.24;48.36
46714;BME280;32445;51.376;10.874;2023-03-23T16:45:39;98468.59;;;16.19;48.32
46714;BME280;32445;51.376;10.874;2023-03-23T16:48:40;98481.06;;;16.15;48.06
46714;BME280;32445;51.376;10.874;2023-03-23T16:51:40;98484.91;;;16.09;48.18
46714;BME280;32445;51.376;10.874;2023-03-23T16:54:41;98468.19;;;16.12;48.28
46714;BME280;32445;51.376;10.874;2023-03-23T16:57:41;98469.09;;;16.11;48.49
46714;BME280;32445;51.376;10.874;2023-03-23T17:00:43;98472.88;;;16.07;48.59
46714;BME280;32445;51.376;10.874;2023-03-23T17:03:44;98472.03;;;16.06;48.19
46714;BME280;32445;51.376;10.874;2023-03-23T17:06:44;98463.53;;;16.03;48.39
46714;BME280;32445;51.376;10.874;2023-03-23T17:09:45;98481.94;;;16.01;48.68
46714;BME280;32445;51.376;10.874;2023-03-23T17:12:46;98479.53;;;15.98;48.61
46714;BME280;32445;51.376;10.874;2023-03-23T17:15:46;98476.38;;;15.93;48.60
46714;BME280;32445;51.376;10.874;2023-03-23T17:18:46;98473.75;;;15.93;48.58
46714;BME280;32445;51.376;10.874;2023-03-23T17:21:47;98480.16;;;15.89;48.64
46714;BME280;32445;51.376;10.874;2023-03-23T17:24:47;98466.50;;;15.84;48.85